JST594 YMML-YSSY
Flight info
| Callsign | JST594 |
|---|---|
| Flight time | 1h 6m |
| Altitude | 32000 |
| Route | DCT ML H129 DOSEL Y59 RIVET RIVET4 |
| Aircraft | A320/M-VGDW/C |
Departure
| Time | 2026-05-04 09:51 |
|---|---|
| Airport | Melbourne Airport (YMML) |
Arrival
| Time | 2026-05-04 10:57 |
|---|---|
| Airport | Sydney Kingsford Smith International Airport (YSSY) |
| Time | Latitude | Longitude | Altitude | Speed | Heading |
|---|---|---|---|---|---|
| 2026-05-04 09:05 | -37.66838 | 144.84752 | 353 ft | 0 kts | 244° |
| 2026-05-04 09:27 | -37.66833 | 144.84764 | 352 ft | 2 kts | 249° |
| 2026-05-04 09:28 | -37.66828 | 144.84784 | 348 ft | 2 kts | 251° |
| 2026-05-04 09:28 | -37.66822 | 144.84803 | 348 ft | 2 kts | 246° |
| 2026-05-04 09:28 | -37.66817 | 144.84823 | 353 ft | 2 kts | 268° |
| 2026-05-04 09:28 | -37.66816 | 144.84844 | 350 ft | 2 kts | 282° |
| 2026-05-04 09:29 | -37.66817 | 144.84847 | 350 ft | 0 kts | 282° |
| 2026-05-04 09:31 | -37.66817 | 144.84845 | 350 ft | 1 kts | 282° |
| 2026-05-04 09:32 | -37.66809 | 144.84825 | 347 ft | 4 kts | 304° |
| 2026-05-04 09:32 | -37.66778 | 144.84799 | 349 ft | 7 kts | 333° |
| 2026-05-04 09:34 | -37.66650 | 144.84626 | 355 ft | 1 kts | 260° |
| 2026-05-04 09:34 | -37.66651 | 144.84620 | 352 ft | 2 kts | 260° |
| 2026-05-04 09:34 | -37.66657 | 144.84576 | 353 ft | 7 kts | 260° |
| 2026-05-04 09:34 | -37.66666 | 144.84506 | 355 ft | 8 kts | 260° |
| 2026-05-04 09:35 | -37.66677 | 144.84431 | 367 ft | 9 kts | 260° |
| 2026-05-04 09:35 | -37.66685 | 144.84347 | 366 ft | 10 kts | 264° |
| 2026-05-04 09:35 | -37.66696 | 144.84254 | 371 ft | 11 kts | 261° |
| 2026-05-04 09:35 | -37.66707 | 144.84147 | 376 ft | 13 kts | 263° |
| 2026-05-04 09:37 | -37.67546 | 144.84127 | 362 ft | 20 kts | 171° |
| 2026-05-04 09:37 | -37.67651 | 144.84145 | 361 ft | 16 kts | 171° |
| 2026-05-04 09:38 | -37.67705 | 144.84156 | 362 ft | 0 kts | 171° |
| 2026-05-04 09:43 | -37.67719 | 144.84158 | 360 ft | 5 kts | 173° |
| 2026-05-04 09:44 | -37.67737 | 144.84161 | 362 ft | 1 kts | 173° |
| 2026-05-04 09:44 | -37.67739 | 144.84161 | 361 ft | 1 kts | 173° |
| 2026-05-04 09:46 | -37.67870 | 144.84121 | 358 ft | 0 kts | 259° |
| 2026-05-04 09:49 | -37.67871 | 144.84116 | 358 ft | 2 kts | 259° |
| 2026-05-04 09:49 | -37.67875 | 144.84076 | 350 ft | 7 kts | 265° |
| 2026-05-04 09:49 | -37.67862 | 144.84006 | 359 ft | 9 kts | 298° |
| 2026-05-04 09:51 | -37.64084 | 144.83328 | 2347 ft | 166 kts | 346° |
| 2026-05-04 09:51 | -37.62988 | 144.83117 | 3471 ft | 154 kts | 342° |
| 2026-05-04 09:51 | -37.61914 | 144.82884 | 4324 ft | 164 kts | 341° |
| 2026-05-04 09:51 | -37.60698 | 144.82604 | 4858 ft | 191 kts | 342° |
| 2026-05-04 09:52 | -37.59263 | 144.82421 | 5313 ft | 226 kts | 358° |
| 2026-05-04 09:52 | -37.57658 | 144.83052 | 5843 ft | 257 kts | 19° |
| 2026-05-04 09:52 | -37.55984 | 144.84100 | 6360 ft | 280 kts | 21° |
| 2026-05-04 09:52 | -37.54172 | 144.85244 | 6807 ft | 301 kts | 21° |
| 2026-05-04 09:53 | -37.52235 | 144.86454 | 7305 ft | 321 kts | 21° |
| 2026-05-04 09:53 | -37.50174 | 144.87722 | 7791 ft | 338 kts | 21° |
| 2026-05-04 09:53 | -37.48031 | 144.89027 | 8276 ft | 354 kts | 21° |
| 2026-05-04 09:53 | -37.45805 | 144.90406 | 8766 ft | 352 kts | 25° |
| 2026-05-04 09:54 | -37.43815 | 144.92145 | 9268 ft | 351 kts | 37° |
| 2026-05-04 09:54 | -37.42107 | 144.94425 | 9766 ft | 363 kts | 50° |
| 2026-05-04 09:54 | -37.40643 | 144.97025 | 10243 ft | 362 kts | 52° |
| 2026-05-04 09:54 | -37.39189 | 144.99618 | 10703 ft | 363 kts | 52° |
| 2026-05-04 09:55 | -37.37733 | 145.02205 | 11179 ft | 360 kts | 51° |
| 2026-05-04 09:55 | -37.36280 | 145.04779 | 11660 ft | 361 kts | 51° |
| 2026-05-04 09:55 | -37.34826 | 145.07348 | 12137 ft | 360 kts | 51° |
| 2026-05-04 09:55 | -37.33373 | 145.09912 | 12634 ft | 360 kts | 51° |
| 2026-05-04 09:56 | -37.31921 | 145.12473 | 13138 ft | 359 kts | 51° |
| 2026-05-04 09:56 | -37.30462 | 145.15040 | 13646 ft | 371 kts | 51° |
| 2026-05-04 09:56 | -37.28936 | 145.17721 | 14132 ft | 383 kts | 51° |
| 2026-05-04 09:56 | -37.27363 | 145.20484 | 14597 ft | 392 kts | 51° |
| 2026-05-04 09:57 | -37.25772 | 145.23284 | 15055 ft | 394 kts | 51° |
| 2026-05-04 09:57 | -37.24181 | 145.26087 | 15546 ft | 393 kts | 51° |
| 2026-05-04 09:57 | -37.22599 | 145.28871 | 16014 ft | 391 kts | 51° |
| 2026-05-04 09:57 | -37.21026 | 145.31649 | 16503 ft | 391 kts | 52° |
| 2026-05-04 09:58 | -37.19457 | 145.34434 | 17011 ft | 390 kts | 51° |
| 2026-05-04 09:58 | -37.17875 | 145.37189 | 17508 ft | 388 kts | 50° |
| 2026-05-04 09:58 | -37.16313 | 145.39899 | 18020 ft | 388 kts | 50° |
| 2026-05-04 10:00 | -37.05308 | 145.59044 | 21333 ft | 394 kts | 50° |
| 2026-05-04 10:00 | -37.03711 | 145.61818 | 21837 ft | 399 kts | 50° |
| 2026-05-04 10:02 | -36.91912 | 145.82249 | 25073 ft | 428 kts | 48° |
| 2026-05-04 10:04 | -36.79215 | 146.04114 | 27523 ft | 457 kts | 45° |
| 2026-05-04 10:04 | -36.77338 | 146.07333 | 27859 ft | 460 kts | 45° |
| 2026-05-04 10:04 | -36.75475 | 146.10525 | 28200 ft | 462 kts | 45° |
| 2026-05-04 10:04 | -36.73577 | 146.13770 | 28583 ft | 464 kts | 45° |
| 2026-05-04 10:05 | -36.71675 | 146.17023 | 28959 ft | 465 kts | 44° |
| 2026-05-04 10:05 | -36.69765 | 146.20288 | 29341 ft | 466 kts | 44° |
| 2026-05-04 10:05 | -36.67850 | 146.23554 | 29742 ft | 467 kts | 44° |
| 2026-05-04 10:05 | -36.65930 | 146.26824 | 30125 ft | 468 kts | 44° |
| 2026-05-04 10:06 | -36.64006 | 146.30099 | 30455 ft | 469 kts | 44° |
| 2026-05-04 10:06 | -36.62076 | 146.33380 | 30740 ft | 469 kts | 44° |
| 2026-05-04 10:06 | -36.60141 | 146.36665 | 30994 ft | 472 kts | 44° |
| 2026-05-04 10:08 | -36.46298 | 146.60081 | 31098 ft | 482 kts | 45° |
| 2026-05-04 10:08 | -36.42346 | 146.66737 | 31101 ft | 481 kts | 45° |
| 2026-05-04 10:09 | -36.38359 | 146.73439 | 31104 ft | 481 kts | 44° |
| 2026-05-04 10:09 | -36.34365 | 146.80138 | 31105 ft | 483 kts | 45° |
| 2026-05-04 10:10 | -36.30375 | 146.86821 | 31110 ft | 482 kts | 44° |
| 2026-05-04 10:10 | -36.26403 | 146.93458 | 31110 ft | 481 kts | 45° |
| 2026-05-04 10:11 | -36.22425 | 147.00147 | 31109 ft | 481 kts | 45° |
| 2026-05-04 10:11 | -36.18416 | 147.06843 | 31118 ft | 483 kts | 45° |
| 2026-05-04 10:12 | -36.14433 | 147.13457 | 31130 ft | 481 kts | 45° |
| 2026-05-04 10:12 | -36.11073 | 147.19021 | 31118 ft | 482 kts | 45° |
| 2026-05-04 10:13 | -36.07072 | 147.25633 | 31115 ft | 483 kts | 45° |
| 2026-05-04 10:13 | -36.03038 | 147.32291 | 31128 ft | 484 kts | 45° |
| 2026-05-04 10:14 | -35.99022 | 147.38915 | 31116 ft | 483 kts | 45° |
| 2026-05-04 10:16 | -35.82925 | 147.65319 | 31130 ft | 481 kts | 44° |
| 2026-05-04 10:16 | -35.78900 | 147.71893 | 31142 ft | 480 kts | 44° |
| 2026-05-04 10:17 | -35.74864 | 147.78471 | 31152 ft | 481 kts | 44° |
| 2026-05-04 10:19 | -35.58725 | 148.04657 | 31160 ft | 480 kts | 44° |
| 2026-05-04 10:19 | -35.54705 | 148.11151 | 31159 ft | 480 kts | 44° |
| 2026-05-04 10:20 | -35.50649 | 148.17687 | 31133 ft | 480 kts | 43° |
| 2026-05-04 10:20 | -35.46599 | 148.24205 | 31159 ft | 478 kts | 43° |
| 2026-05-04 10:21 | -35.42542 | 148.30704 | 31164 ft | 480 kts | 43° |
| 2026-05-04 10:21 | -35.38513 | 148.37165 | 31161 ft | 480 kts | 43° |
| 2026-05-04 10:22 | -35.32415 | 148.46934 | 31165 ft | 481 kts | 43° |
| 2026-05-04 10:23 | -35.28356 | 148.53415 | 31165 ft | 479 kts | 43° |
| 2026-05-04 10:25 | -35.12073 | 148.79264 | 30978 ft | 478 kts | 43° |
| 2026-05-04 10:25 | -35.10047 | 148.82480 | 30789 ft | 477 kts | 43° |
| 2026-05-04 10:25 | -35.08015 | 148.85690 | 30600 ft | 475 kts | 43° |
| 2026-05-04 10:25 | -35.06004 | 148.88875 | 30387 ft | 473 kts | 43° |
| 2026-05-04 10:26 | -35.04009 | 148.92019 | 30190 ft | 472 kts | 43° |
| 2026-05-04 10:26 | -35.01999 | 148.95177 | 29977 ft | 470 kts | 43° |
| 2026-05-04 10:26 | -34.99998 | 148.98323 | 29753 ft | 467 kts | 43° |
| 2026-05-04 10:26 | -34.98005 | 149.01454 | 29534 ft | 466 kts | 43° |
| 2026-05-04 10:27 | -34.96020 | 149.04572 | 29292 ft | 464 kts | 43° |
| 2026-05-04 10:27 | -34.94057 | 149.07655 | 29066 ft | 458 kts | 43° |
| 2026-05-04 10:27 | -34.92100 | 149.10725 | 28848 ft | 456 kts | 43° |
| 2026-05-04 10:27 | -34.90146 | 149.13781 | 28611 ft | 457 kts | 43° |
| 2026-05-04 10:28 | -34.88195 | 149.16832 | 28396 ft | 455 kts | 43° |
| 2026-05-04 10:28 | -34.86255 | 149.19867 | 28192 ft | 453 kts | 43° |
| 2026-05-04 10:28 | -34.84346 | 149.22854 | 27985 ft | 452 kts | 43° |
| 2026-05-04 10:28 | -34.82418 | 149.25868 | 27775 ft | 450 kts | 43° |
| 2026-05-04 10:29 | -34.80496 | 149.28869 | 27570 ft | 448 kts | 43° |
| 2026-05-04 10:29 | -34.78580 | 149.31856 | 27367 ft | 447 kts | 43° |
| 2026-05-04 10:29 | -34.76669 | 149.34831 | 27164 ft | 445 kts | 43° |
| 2026-05-04 10:29 | -34.74764 | 149.37821 | 26934 ft | 453 kts | 45° |
| 2026-05-04 10:30 | -34.73020 | 149.41142 | 26742 ft | 479 kts | 53° |
| 2026-05-04 10:30 | -34.71454 | 149.44740 | 26540 ft | 479 kts | 54° |
| 2026-05-04 10:30 | -34.69911 | 149.48319 | 26343 ft | 475 kts | 54° |
| 2026-05-04 10:30 | -34.68377 | 149.51866 | 26143 ft | 477 kts | 54° |
| 2026-05-04 10:31 | -34.66793 | 149.55489 | 25952 ft | 492 kts | 54° |
| 2026-05-04 10:31 | -34.65167 | 149.59174 | 25756 ft | 496 kts | 53° |
| 2026-05-04 10:32 | -34.55459 | 149.81354 | 25028 ft | 494 kts | 54° |
| 2026-05-04 10:33 | -34.53885 | 149.84946 | 24716 ft | 481 kts | 54° |
| 2026-05-04 10:33 | -34.52334 | 149.88485 | 24326 ft | 468 kts | 54° |
| 2026-05-04 10:33 | -34.50819 | 149.91929 | 23929 ft | 457 kts | 54° |
| 2026-05-04 10:33 | -34.49334 | 149.95293 | 23513 ft | 447 kts | 54° |
| 2026-05-04 10:34 | -34.47877 | 149.98586 | 23056 ft | 437 kts | 53° |
| 2026-05-04 10:34 | -34.46468 | 150.01763 | 22609 ft | 429 kts | 53° |
| 2026-05-04 10:34 | -34.45065 | 150.04925 | 22163 ft | 420 kts | 53° |
| 2026-05-04 10:34 | -34.43698 | 150.08003 | 21717 ft | 413 kts | 54° |
| 2026-05-04 10:35 | -34.42345 | 150.11039 | 21271 ft | 404 kts | 54° |
| 2026-05-04 10:35 | -34.41015 | 150.14018 | 20863 ft | 398 kts | 54° |
| 2026-05-04 10:35 | -34.39714 | 150.16951 | 20438 ft | 391 kts | 54° |
| 2026-05-04 10:35 | -34.38426 | 150.19847 | 20012 ft | 390 kts | 54° |
| 2026-05-04 10:36 | -34.37155 | 150.22692 | 19597 ft | 388 kts | 54° |
| 2026-05-04 10:36 | -34.35879 | 150.25552 | 19204 ft | 384 kts | 54° |
| 2026-05-04 10:36 | -34.34617 | 150.28382 | 18811 ft | 381 kts | 55° |
| 2026-05-04 10:36 | -34.33356 | 150.31200 | 18399 ft | 379 kts | 55° |
| 2026-05-04 10:37 | -34.32105 | 150.33994 | 17954 ft | 375 kts | 55° |
| 2026-05-04 10:37 | -34.30870 | 150.36759 | 17506 ft | 372 kts | 55° |
| 2026-05-04 10:37 | -34.29639 | 150.39518 | 17073 ft | 371 kts | 55° |
| 2026-05-04 10:37 | -34.28418 | 150.42248 | 16631 ft | 366 kts | 55° |
| 2026-05-04 10:39 | -34.21335 | 150.58077 | 14159 ft | 350 kts | 55° |
| 2026-05-04 10:39 | -34.20180 | 150.60655 | 13749 ft | 346 kts | 55° |
| 2026-05-04 10:39 | -34.19030 | 150.63213 | 13291 ft | 346 kts | 56° |
| 2026-05-04 10:40 | -34.17897 | 150.65734 | 12857 ft | 344 kts | 56° |
| 2026-05-04 10:40 | -34.16762 | 150.68262 | 12392 ft | 332 kts | 56° |
| 2026-05-04 10:40 | -34.15695 | 150.70633 | 11980 ft | 321 kts | 56° |
| 2026-05-04 10:40 | -34.14646 | 150.72967 | 11556 ft | 311 kts | 56° |
| 2026-05-04 10:41 | -34.13631 | 150.75229 | 11117 ft | 302 kts | 55° |
| 2026-05-04 10:41 | -34.12638 | 150.77440 | 10625 ft | 298 kts | 55° |
| 2026-05-04 10:41 | -34.11647 | 150.79632 | 10127 ft | 297 kts | 55° |
| 2026-05-04 10:41 | -34.10662 | 150.81808 | 9603 ft | 294 kts | 55° |
| 2026-05-04 10:42 | -34.09685 | 150.83969 | 9062 ft | 290 kts | 55° |
| 2026-05-04 10:42 | -34.08718 | 150.86113 | 8529 ft | 291 kts | 55° |
| 2026-05-04 10:42 | -34.07754 | 150.88260 | 8004 ft | 289 kts | 55° |
| 2026-05-04 10:42 | -34.06813 | 150.90352 | 7495 ft | 285 kts | 55° |
| 2026-05-04 10:43 | -34.05869 | 150.92448 | 6987 ft | 282 kts | 55° |
| 2026-05-04 10:44 | -34.06859 | 151.06428 | 6055 ft | 282 kts | 135° |
| 2026-05-04 10:45 | -34.08452 | 151.07761 | 6042 ft | 279 kts | 159° |
| 2026-05-04 10:45 | -34.10314 | 151.08359 | 6050 ft | 279 kts | 171° |
| 2026-05-04 10:45 | -34.12219 | 151.08822 | 5994 ft | 279 kts | 171° |
| 2026-05-04 10:45 | -34.14093 | 151.09294 | 5747 ft | 278 kts | 171° |
| 2026-05-04 10:46 | -34.15982 | 151.09780 | 5404 ft | 277 kts | 170° |
| 2026-05-04 10:46 | -34.17874 | 151.10270 | 5002 ft | 277 kts | 169° |
| 2026-05-04 10:46 | -34.19747 | 151.10756 | 4617 ft | 275 kts | 169° |
| 2026-05-04 10:46 | -34.21613 | 151.11244 | 4228 ft | 273 kts | 169° |
| 2026-05-04 10:47 | -34.23464 | 151.11735 | 3863 ft | 270 kts | 169° |
| 2026-05-04 10:47 | -34.25299 | 151.12221 | 3492 ft | 268 kts | 169° |
| 2026-05-04 10:47 | -34.27088 | 151.12690 | 3169 ft | 264 kts | 169° |
| 2026-05-04 10:47 | -34.28762 | 151.13447 | 3021 ft | 252 kts | 143° |
| 2026-05-04 10:49 | -34.25096 | 151.21856 | 3031 ft | 170 kts | 5° |
| 2026-05-04 10:49 | -34.23923 | 151.22062 | 3010 ft | 173 kts | 4° |
| 2026-05-04 10:50 | -34.22765 | 151.22253 | 3000 ft | 161 kts | 4° |
| 2026-05-04 10:51 | -34.15284 | 151.22964 | 3018 ft | 155 kts | 345° |
| 2026-05-04 10:52 | -34.14239 | 151.22685 | 3017 ft | 154 kts | 345° |
| 2026-05-04 10:52 | -34.13189 | 151.22408 | 3018 ft | 152 kts | 347° |
| 2026-05-04 10:52 | -34.12142 | 151.22138 | 3022 ft | 153 kts | 347° |
| 2026-05-04 10:54 | -34.05459 | 151.20419 | 1897 ft | 131 kts | 350° |
| 2026-05-04 10:54 | -34.04587 | 151.20195 | 1688 ft | 126 kts | 348° |
| 2026-05-04 10:56 | -33.98291 | 151.18541 | 484 ft | 139 kts | 352° |
| 2026-05-04 10:56 | -33.97381 | 151.18320 | 238 ft | 127 kts | 348° |
| 2026-05-04 10:56 | -33.96568 | 151.18099 | 85 ft | 116 kts | 350° |
| 2026-05-04 10:57 | -33.95754 | 151.17889 | 25 ft | 113 kts | 349° |
| 2026-05-04 10:57 | -33.95147 | 151.17734 | 20 ft | 61 kts | 348° |
| 2026-05-04 10:57 | -33.94842 | 151.17663 | 23 ft | 36 kts | 354° |
| 2026-05-04 10:57 | -33.94632 | 151.17656 | 23 ft | 24 kts | 5° |
| 2026-05-04 10:58 | -33.94570 | 151.17668 | 23 ft | 0 kts | 12° |
| 2026-05-04 11:00 | -33.94569 | 151.17668 | 23 ft | 1 kts | 12° |
| 2026-05-04 11:01 | -33.94169 | 151.17683 | 21 ft | 16 kts | 345° |
| 2026-05-04 11:02 | -33.94060 | 151.17652 | 23 ft | 16 kts | 5° |
| 2026-05-04 11:02 | -33.93950 | 151.17623 | 19 ft | 7 kts | 348° |
| 2026-05-04 11:05 | -33.93411 | 151.17626 | 30 ft | 7 kts | 39° |
| 2026-05-04 11:06 | -33.93410 | 151.17683 | 30 ft | 9 kts | 96° |
| 2026-05-04 11:06 | -33.93412 | 151.17699 | 30 ft | 0 kts | 99° |